sensor_id;sensor_type;location;lat;lon;timestamp;pressure;altitude;pressure_sealevel;temperature;humidity
70971;BME280;58632;51.718;19.446;2023-11-22T00:00:27;100073.67;;;-1.69;100.00
70971;BME280;58632;51.718;19.446;2023-11-22T00:03:13;100077.90;;;-1.70;100.00
70971;BME280;58632;51.718;19.446;2023-11-22T00:05:38;100085.80;;;-1.74;100.00
70971;BME280;58632;51.718;19.446;2023-11-22T00:08:04;100086.77;;;-1.79;100.00
70971;BME280;58632;51.718;19.446;2023-11-22T00:10:32;100093.83;;;-1.83;100.00
70971;BME280;58632;51.718;19.446;2023-11-22T00:12:57;100099.08;;;-1.86;100.00
70971;BME280;58632;51.718;19.446;2023-11-22T00:15:24;100105.23;;;-1.89;100.00
70971;BME280;58632;51.718;19.446;2023-11-22T00:17:49;100107.86;;;-1.91;100.00
70971;BME280;58632;51.718;19.446;2023-11-22T00:20:15;100112.52;;;-1.89;100.00
70971;BME280;58632;51.718;19.446;2023-11-22T00:22:42;100117.88;;;-1.87;100.00
70971;BME280;58632;51.718;19.446;2023-11-22T00:25:10;100121.90;;;-1.88;100.00
70971;BME280;58632;51.718;19.446;2023-11-22T00:27:38;100128.01;;;-1.93;100.00
70971;BME280;58632;51.718;19.446;2023-11-22T00:30:03;100134.92;;;-1.95;100.00
70971;BME280;58632;51.718;19.446;2023-11-22T00:32:32;100139.77;;;-1.95;100.00
70971;BME280;58632;51.718;19.446;2023-11-22T00:34:57;100146.91;;;-1.95;100.00
70971;BME280;58632;51.718;19.446;2023-11-22T00:37:23;100147.59;;;-1.93;100.00
70971;BME280;58632;51.718;19.446;2023-11-22T00:39:48;100155.61;;;-1.92;100.00
70971;BME280;58632;51.718;19.446;2023-11-22T00:42:14;100157.21;;;-1.90;100.00
70971;BME280;58632;51.718;19.446;2023-11-22T00:44:40;100161.06;;;-1.89;100.00
70971;BME280;58632;51.718;19.446;2023-11-22T00:47:05;100162.89;;;-1.87;100.00
70971;BME280;58632;51.718;19.446;2023-11-22T00:49:31;100162.47;;;-1.88;100.00
70971;BME280;58632;51.718;19.446;2023-11-22T00:51:57;100161.05;;;-1.90;100.00
70971;BME280;58632;51.718;19.446;2023-11-22T00:54:23;100160.36;;;-1.89;100.00
70971;BME280;58632;51.718;19.446;2023-11-22T00:56:50;100159.91;;;-1.87;100.00
70971;BME280;58632;51.718;19.446;2023-11-22T00:59:15;100158.63;;;-1.86;100.00
70971;BME280;58632;51.718;19.446;2023-11-22T01:01:41;100158.83;;;-1.86;100.00
70971;BME280;58632;51.718;19.446;2023-11-22T01:04:07;100157.95;;;-1.82;100.00
70971;BME280;58632;51.718;19.446;2023-11-22T01:06:32;100157.17;;;-1.79;100.00
70971;BME280;58632;51.718;19.446;2023-11-22T01:08:58;100151.99;;;-1.77;100.00
70971;BME280;58632;51.718;19.446;2023-11-22T01:11:24;100149.39;;;-1.77;100.00
70971;BME280;58632;51.718;19.446;2023-11-22T01:13:49;100143.08;;;-1.75;100.00
70971;BME280;58632;51.718;19.446;2023-11-22T01:16:14;100139.20;;;-1.76;100.00
70971;BME280;58632;51.718;19.446;2023-11-22T01:18:43;100144.50;;;-1.79;100.00
70971;BME280;58632;51.718;19.446;2023-11-22T01:21:11;100143.75;;;-1.81;100.00
70971;BME280;58632;51.718;19.446;2023-11-22T01:23:36;100146.91;;;-1.82;100.00
70971;BME280;58632;51.718;19.446;2023-11-22T01:26:02;100150.05;;;-1.79;100.00
70971;BME280;58632;51.718;19.446;2023-11-22T01:28:28;100155.02;;;-1.79;100.00
70971;BME280;58632;51.718;19.446;2023-11-22T01:30:54;100153.69;;;-1.79;100.00
70971;BME280;58632;51.718;19.446;2023-11-22T01:33:22;100156.83;;;-1.80;100.00
70971;BME280;58632;51.718;19.446;2023-11-22T01:35:47;100160.74;;;-1.80;100.00
70971;BME280;58632;51.718;19.446;2023-11-22T01:38:15;100164.17;;;-1.82;100.00
70971;BME280;58632;51.718;19.446;2023-11-22T01:40:50;100161.79;;;-1.83;100.00
70971;BME280;58632;51.718;19.446;2023-11-22T01:43:17;100160.59;;;-1.84;100.00
70971;BME280;58632;51.718;19.446;2023-11-22T01:45:43;100172.02;;;-1.86;100.00
70971;BME280;58632;51.718;19.446;2023-11-22T01:48:10;100177.39;;;-1.87;100.00
70971;BME280;58632;51.718;19.446;2023-11-22T01:50:39;100177.95;;;-1.85;100.00
70971;BME280;58632;51.718;19.446;2023-11-22T01:53:05;100183.04;;;-1.86;100.00
70971;BME280;58632;51.718;19.446;2023-11-22T01:55:31;100190.90;;;-1.85;100.00
70971;BME280;58632;51.718;19.446;2023-11-22T01:57:59;100193.46;;;-1.85;100.00
70971;BME280;58632;51.718;19.446;2023-11-22T02:00:24;100200.20;;;-1.85;100.00
70971;BME280;58632;51.718;19.446;2023-11-22T02:02:52;100202.45;;;-1.84;100.00
70971;BME280;58632;51.718;19.446;2023-11-22T02:05:18;100199.63;;;-1.86;100.00
70971;BME280;58632;51.718;19.446;2023-11-22T02:07:43;100202.77;;;-1.86;100.00
70971;BME280;58632;51.718;19.446;2023-11-22T02:10:09;100205.67;;;-1.84;100.00
70971;BME280;58632;51.718;19.446;2023-11-22T02:12:35;100196.89;;;-1.84;100.00
70971;BME280;58632;51.718;19.446;2023-11-22T02:15:01;100198.82;;;-1.84;100.00
70971;BME280;58632;51.718;19.446;2023-11-22T02:17:28;100203.72;;;-1.85;100.00
70971;BME280;58632;51.718;19.446;2023-11-22T02:19:59;100204.37;;;-1.85;100.00
70971;BME280;58632;51.718;19.446;2023-11-22T02:22:24;100203.03;;;-1.81;100.00
70971;BME280;58632;51.718;19.446;2023-11-22T02:24:50;100205.36;;;-1.75;100.00
70971;BME280;58632;51.718;19.446;2023-11-22T02:27:15;100205.15;;;-1.71;100.00
70971;BME280;58632;51.718;19.446;2023-11-22T02:29:41;100202.92;;;-1.72;100.00
70971;BME280;58632;51.718;19.446;2023-11-22T02:32:06;100210.89;;;-1.74;100.00
70971;BME280;58632;51.718;19.446;2023-11-22T02:34:33;100216.90;;;-1.76;100.00
70971;BME280;58632;51.718;19.446;2023-11-22T02:36:58;100219.75;;;-1.76;100.00
70971;BME280;58632;51.718;19.446;2023-11-22T02:39:27;100223.68;;;-1.73;100.00
70971;BME280;58632;51.718;19.446;2023-11-22T02:41:54;100226.89;;;-1.72;100.00
70971;BME280;58632;51.718;19.446;2023-11-22T02:44:20;100232.59;;;-1.74;100.00
70971;BME280;58632;51.718;19.446;2023-11-22T02:46:45;100230.05;;;-1.76;100.00
70971;BME280;58632;51.718;19.446;2023-11-22T02:49:11;100232.70;;;-1.80;100.00
70971;BME280;58632;51.718;19.446;2023-11-22T02:51:36;100241.77;;;-1.84;100.00
70971;BME280;58632;51.718;19.446;2023-11-22T02:54:02;100246.59;;;-1.88;100.00
70971;BME280;58632;51.718;19.446;2023-11-22T02:56:27;100251.45;;;-1.92;100.00
70971;BME280;58632;51.718;19.446;2023-11-22T02:58:53;100261.88;;;-1.89;100.00
70971;BME280;58632;51.718;19.446;2023-11-22T03:01:18;100266.90;;;-1.84;100.00
70971;BME280;58632;51.718;19.446;2023-11-22T03:03:44;100267.55;;;-1.82;100.00
70971;BME280;58632;51.718;19.446;2023-11-22T03:06:09;100269.09;;;-1.80;100.00
70971;BME280;58632;51.718;19.446;2023-11-22T03:08:35;100266.19;;;-1.79;100.00
70971;BME280;58632;51.718;19.446;2023-11-22T03:11:00;100273.33;;;-1.79;100.00
70971;BME280;58632;51.718;19.446;2023-11-22T03:13:27;100275.17;;;-1.80;100.00
70971;BME280;58632;51.718;19.446;2023-11-22T03:15:52;100272.15;;;-1.80;100.00
70971;BME280;58632;51.718;19.446;2023-11-22T03:18:18;100277.41;;;-1.81;100.00
70971;BME280;58632;51.718;19.446;2023-11-22T03:20:46;100284.53;;;-1.82;100.00
70971;BME280;58632;51.718;19.446;2023-11-22T03:23:12;100283.20;;;-1.84;100.00
70971;BME280;58632;51.718;19.446;2023-11-22T03:25:37;100297.20;;;-1.87;100.00
70971;BME280;58632;51.718;19.446;2023-11-22T03:28:03;100303.39;;;-1.89;100.00
70971;BME280;58632;51.718;19.446;2023-11-22T03:30:28;100305.11;;;-1.91;100.00
70971;BME280;58632;51.718;19.446;2023-11-22T03:33:14;100311.33;;;-1.89;100.00
70971;BME280;58632;51.718;19.446;2023-11-22T03:35:40;100309.97;;;-1.90;100.00
70971;BME280;58632;51.718;19.446;2023-11-22T03:38:06;100311.26;;;-1.88;100.00
70971;BME280;58632;51.718;19.446;2023-11-22T03:40:32;100314.20;;;-1.88;100.00
70971;BME280;58632;51.718;19.446;2023-11-22T03:42:57;100314.59;;;-1.91;100.00
70971;BME280;58632;51.718;19.446;2023-11-22T03:45:23;100315.88;;;-1.92;100.00
70971;BME280;58632;51.718;19.446;2023-11-22T03:47:48;100326.86;;;-1.91;100.00
70971;BME280;58632;51.718;19.446;2023-11-22T03:50:13;100337.63;;;-1.93;100.00
70971;BME280;58632;51.718;19.446;2023-11-22T03:52:39;100340.84;;;-1.96;100.00
70971;BME280;58632;51.718;19.446;2023-11-22T03:55:05;100349.78;;;-1.94;100.00
70971;BME280;58632;51.718;19.446;2023-11-22T03:57:31;100358.00;;;-1.94;100.00
70971;BME280;58632;51.718;19.446;2023-11-22T03:59:56;100361.85;;;-1.96;100.00
70971;BME280;58632;51.718;19.446;2023-11-22T04:02:22;100364.50;;;-1.96;100.00
70971;BME280;58632;51.718;19.446;2023-11-22T04:04:48;100367.48;;;-1.97;100.00
70971;BME280;58632;51.718;19.446;2023-11-22T04:07:13;100369.58;;;-1.99;100.00
70971;BME280;58632;51.718;19.446;2023-11-22T04:09:39;100373.70;;;-2.01;100.00
70971;BME280;58632;51.718;19.446;2023-11-22T04:12:04;100373.79;;;-2.02;100.00
70971;BME280;58632;51.718;19.446;2023-11-22T04:14:30;100377.56;;;-2.01;100.00
70971;BME280;58632;51.718;19.446;2023-11-22T04:16:56;100377.91;;;-2.04;100.00
70971;BME280;58632;51.718;19.446;2023-11-22T04:19:21;100381.89;;;-2.05;100.00
70971;BME280;58632;51.718;19.446;2023-11-22T04:21:46;100383.20;;;-2.06;100.00
70971;BME280;58632;51.718;19.446;2023-11-22T04:24:12;100385.87;;;-2.09;100.00
70971;BME280;58632;51.718;19.446;2023-11-22T04:26:37;100388.17;;;-2.09;100.00
70971;BME280;58632;51.718;19.446;2023-11-22T04:29:05;100395.58;;;-2.11;100.00
70971;BME280;58632;51.718;19.446;2023-11-22T04:31:31;100402.48;;;-2.12;100.00
70971;BME280;58632;51.718;19.446;2023-11-22T04:33:56;100403.27;;;-2.12;100.00
70971;BME280;58632;51.718;19.446;2023-11-22T04:36:23;100400.73;;;-2.11;100.00
70971;BME280;58632;51.718;19.446;2023-11-22T04:38:48;100406.91;;;-2.10;100.00
70971;BME280;58632;51.718;19.446;2023-11-22T04:41:15;100407.95;;;-2.10;100.00
70971;BME280;58632;51.718;19.446;2023-11-22T04:43:40;100413.96;;;-2.08;100.00
70971;BME280;58632;51.718;19.446;2023-11-22T04:46:07;100412.30;;;-2.08;100.00
70971;BME280;58632;51.718;19.446;2023-11-22T04:48:33;100405.54;;;-2.09;100.00
70971;BME280;58632;51.718;19.446;2023-11-22T04:50:59;100407.63;;;-2.12;100.00
70971;BME280;58632;51.718;19.446;2023-11-22T04:53:24;100412.15;;;-2.14;100.00
70971;BME280;58632;51.718;19.446;2023-11-22T04:55:50;100409.86;;;-2.12;100.00
70971;BME280;58632;51.718;19.446;2023-11-22T04:58:16;100406.84;;;-2.11;100.00
70971;BME280;58632;51.718;19.446;2023-11-22T05:00:41;100409.49;;;-2.12;100.00
70971;BME280;58632;51.718;19.446;2023-11-22T05:03:07;100409.60;;;-2.15;100.00
70971;BME280;58632;51.718;19.446;2023-11-22T05:05:33;100409.88;;;-2.16;100.00
70971;BME280;58632;51.718;19.446;2023-11-22T05:07:58;100419.42;;;-2.19;100.00
70971;BME280;58632;51.718;19.446;2023-11-22T05:10:26;100421.79;;;-2.23;100.00
70971;BME280;58632;51.718;19.446;2023-11-22T05:12:52;100427.79;;;-2.29;100.00
70971;BME280;58632;51.718;19.446;2023-11-22T05:15:17;100440.52;;;-2.31;100.00
70971;BME280;58632;51.718;19.446;2023-11-22T05:17:43;100447.63;;;-2.32;100.00
70971;BME280;58632;51.718;19.446;2023-11-22T05:20:08;100451.77;;;-2.34;100.00
70971;BME280;58632;51.718;19.446;2023-11-22T05:22:35;100459.84;;;-2.38;100.00
70971;BME280;58632;51.718;19.446;2023-11-22T05:25:00;100458.73;;;-2.43;100.00
70971;BME280;58632;51.718;19.446;2023-11-22T05:27:26;100457.58;;;-2.47;100.00
70971;BME280;58632;51.718;19.446;2023-11-22T05:29:51;100464.15;;;-2.51;100.00
70971;BME280;58632;51.718;19.446;2023-11-22T05:32:16;100470.02;;;-2.59;100.00
70971;BME280;58632;51.718;19.446;2023-11-22T05:34:42;100475.73;;;-2.68;100.00
70971;BME280;58632;51.718;19.446;2023-11-22T05:37:10;100476.36;;;-2.75;100.00
70971;BME280;58632;51.718;19.446;2023-11-22T05:39:36;100484.62;;;-2.83;100.00
70971;BME280;58632;51.718;19.446;2023-11-22T05:42:02;100483.59;;;-2.88;100.00
70971;BME280;58632;51.718;19.446;2023-11-22T05:44:28;100484.98;;;-2.94;100.00
70971;BME280;58632;51.718;19.446;2023-11-22T05:46:53;100481.00;;;-3.04;100.00
70971;BME280;58632;51.718;19.446;2023-11-22T05:49:19;100479.08;;;-3.13;100.00
70971;BME280;58632;51.718;19.446;2023-11-22T05:51:45;100488.89;;;-3.21;100.00
70971;BME280;58632;51.718;19.446;2023-11-22T05:54:10;100496.05;;;-3.28;100.00
70971;BME280;58632;51.718;19.446;2023-11-22T05:56:38;100496.18;;;-3.37;100.00
70971;BME280;58632;51.718;19.446;2023-11-22T05:59:03;100500.17;;;-3.46;100.00
70971;BME280;58632;51.718;19.446;2023-11-22T06:01:29;100500.65;;;-3.51;100.00
70971;BME280;58632;51.718;19.446;2023-11-22T06:03:55;100506.77;;;-3.57;100.00
70971;BME280;58632;51.718;19.446;2023-11-22T06:06:21;100509.95;;;-3.62;100.00
70971;BME280;58632;51.718;19.446;2023-11-22T06:08:47;100513.95;;;-3.67;100.00
70971;BME280;58632;51.718;19.446;2023-11-22T06:11:12;100518.17;;;-3.71;100.00
70971;BME280;58632;51.718;19.446;2023-11-22T06:13:39;100516.40;;;-3.74;100.00
70971;BME280;58632;51.718;19.446;2023-11-22T06:16:04;100512.46;;;-3.78;100.00
70971;BME280;58632;51.718;19.446;2023-11-22T06:18:31;100508.98;;;-3.82;100.00
70971;BME280;58632;51.718;19.446;2023-11-22T06:20:58;100509.23;;;-3.87;100.00
70971;BME280;58632;51.718;19.446;2023-11-22T06:23:23;100509.00;;;-3.92;100.00
70971;BME280;58632;51.718;19.446;2023-11-22T06:25:49;100514.11;;;-3.96;100.00
70971;BME280;58632;51.718;19.446;2023-11-22T06:28:15;100515.92;;;-4.00;100.00
70971;BME280;58632;51.718;19.446;2023-11-22T06:30:40;100531.28;;;-4.00;100.00
70971;BME280;58632;51.718;19.446;2023-11-22T06:33:07;100540.39;;;-4.01;100.00
70971;BME280;58632;51.718;19.446;2023-11-22T06:35:32;100550.46;;;-3.99;100.00
70971;BME280;58632;51.718;19.446;2023-11-22T06:37:58;100559.10;;;-3.98;100.00
70971;BME280;58632;51.718;19.446;2023-11-22T06:40:23;100566.63;;;-3.98;100.00
70971;BME280;58632;51.718;19.446;2023-11-22T06:42:49;100561.15;;;-4.00;100.00
70971;BME280;58632;51.718;19.446;2023-11-22T06:45:17;100570.17;;;-4.01;100.00
70971;BME280;58632;51.718;19.446;2023-11-22T06:47:42;100573.02;;;-4.05;100.00
70971;BME280;58632;51.718;19.446;2023-11-22T06:50:08;100578.09;;;-4.08;100.00
70971;BME280;58632;51.718;19.446;2023-11-22T06:52:39;100581.14;;;-4.11;100.00
70971;BME280;58632;51.718;19.446;2023-11-22T06:55:06;100586.56;;;-4.10;100.00
70971;BME280;58632;51.718;19.446;2023-11-22T06:57:37;100599.48;;;-4.07;100.00
70971;BME280;58632;51.718;19.446;2023-11-22T07:00:05;100609.03;;;-4.03;100.00
70971;BME280;58632;51.718;19.446;2023-11-22T07:02:33;100605.78;;;-4.02;100.00
70971;BME280;58632;51.718;19.446;2023-11-22T07:05:00;100608.66;;;-4.00;100.00
70971;BME280;58632;51.718;19.446;2023-11-22T07:07:26;100614.67;;;-3.98;100.00
70971;BME280;58632;51.718;19.446;2023-11-22T07:09:51;100620.30;;;-3.98;100.00
70971;BME280;58632;51.718;19.446;2023-11-22T07:12:17;100613.40;;;-3.94;100.00
70971;BME280;58632;51.718;19.446;2023-11-22T07:14:44;100617.17;;;-3.88;100.00
70971;BME280;58632;51.718;19.446;2023-11-22T07:17:09;100621.17;;;-3.82;100.00
70971;BME280;58632;51.718;19.446;2023-11-22T07:19:35;100628.13;;;-3.79;100.00
70971;BME280;58632;51.718;19.446;2023-11-22T07:22:06;100632.54;;;-3.77;100.00
70971;BME280;58632;51.718;19.446;2023-11-22T07:24:43;100630.69;;;-3.77;100.00
70971;BME280;58632;51.718;19.446;2023-11-22T07:27:12;100625.73;;;-3.75;100.00
70971;BME280;58632;51.718;19.446;2023-11-22T07:29:41;100617.08;;;-3.69;100.00
70971;BME280;58632;51.718;19.446;2023-11-22T07:32:07;100616.17;;;-3.64;100.00
70971;BME280;58632;51.718;19.446;2023-11-22T07:34:36;100619.84;;;-3.57;100.00
70971;BME280;58632;51.718;19.446;2023-11-22T07:37:02;100615.98;;;-3.48;100.00
70971;BME280;58632;51.718;19.446;2023-11-22T07:39:28;100610.55;;;-3.34;100.00
70971;BME280;58632;51.718;19.446;2023-11-22T07:41:54;100595.67;;;-3.22;100.00
70971;BME280;58632;51.718;19.446;2023-11-22T07:44:23;100591.94;;;-3.13;100.00
70971;BME280;58632;51.718;19.446;2023-11-22T07:46:49;100593.52;;;-3.02;100.00
70971;BME280;58632;51.718;19.446;2023-11-22T07:49:15;100603.23;;;-2.92;100.00
70971;BME280;58632;51.718;19.446;2023-11-22T07:51:40;100609.02;;;-2.84;100.00
70971;BME280;58632;51.718;19.446;2023-11-22T07:54:07;100617.38;;;-2.74;100.00
70971;BME280;58632;51.718;19.446;2023-11-22T07:56:32;100624.70;;;-2.68;100.00
70971;BME280;58632;51.718;19.446;2023-11-22T07:58:58;100625.80;;;-2.60;100.00
70971;BME280;58632;51.718;19.446;2023-11-22T08:01:23;100630.42;;;-2.51;100.00
70971;BME280;58632;51.718;19.446;2023-11-22T08:03:53;100635.26;;;-2.46;100.00
70971;BME280;58632;51.718;19.446;2023-11-22T08:06:21;100647.77;;;-2.44;100.00
70971;BME280;58632;51.718;19.446;2023-11-22T08:08:46;100645.89;;;-2.43;100.00
70971;BME280;58632;51.718;19.446;2023-11-22T08:11:12;100648.81;;;-2.42;100.00
70971;BME280;58632;51.718;19.446;2023-11-22T08:13:41;100648.15;;;-2.43;100.00
70971;BME280;58632;51.718;19.446;2023-11-22T08:16:08;100652.16;;;-2.42;100.00
70971;BME280;58632;51.718;19.446;2023-11-22T08:18:34;100653.90;;;-2.38;100.00
70971;BME280;58632;51.718;19.446;2023-11-22T08:21:00;100658.64;;;-2.30;100.00
70971;BME280;58632;51.718;19.446;2023-11-22T08:23:25;100663.25;;;-2.21;100.00
70971;BME280;58632;51.718;19.446;2023-11-22T08:25:52;100660.49;;;-2.11;100.00
70971;BME280;58632;51.718;19.446;2023-11-22T08:28:18;100662.67;;;-2.09;100.00
70971;BME280;58632;51.718;19.446;2023-11-22T08:30:44;100667.24;;;-2.13;100.00
70971;BME280;58632;51.718;19.446;2023-11-22T08:33:09;100669.27;;;-2.14;100.00
70971;BME280;58632;51.718;19.446;2023-11-22T08:35:35;100671.55;;;-2.08;100.00
70971;BME280;58632;51.718;19.446;2023-11-22T08:38:01;100674.04;;;-2.03;100.00
70971;BME280;58632;51.718;19.446;2023-11-22T08:40:28;100682.80;;;-1.99;100.00
70971;BME280;58632;51.718;19.446;2023-11-22T08:42:54;100689.42;;;-1.96;100.00
70971;BME280;58632;51.718;19.446;2023-11-22T08:45:20;100693.84;;;-1.95;100.00
70971;BME280;58632;51.718;19.446;2023-11-22T08:47:45;100693.94;;;-1.96;100.00
70971;BME280;58632;51.718;19.446;2023-11-22T08:50:11;100694.51;;;-1.96;100.00
70971;BME280;58632;51.718;19.446;2023-11-22T08:52:40;100703.92;;;-1.94;100.00
70971;BME280;58632;51.718;19.446;2023-11-22T08:55:07;100702.45;;;-1.91;100.00
70971;BME280;58632;51.718;19.446;2023-11-22T08:57:36;100704.79;;;-1.88;100.00
70971;BME280;58632;51.718;19.446;2023-11-22T09:00:06;100700.73;;;-1.83;100.00
70971;BME280;58632;51.718;19.446;2023-11-22T09:02:34;100700.37;;;-1.83;100.00
70971;BME280;58632;51.718;19.446;2023-11-22T09:05:01;100698.61;;;-1.81;100.00
70971;BME280;58632;51.718;19.446;2023-11-22T09:07:29;100707.73;;;-1.75;100.00
70971;BME280;58632;51.718;19.446;2023-11-22T09:09:55;100710.22;;;-1.68;100.00
70971;BME280;58632;51.718;19.446;2023-11-22T09:12:23;100712.68;;;-1.61;100.00
70971;BME280;58632;51.718;19.446;2023-11-22T09:14:49;100719.48;;;-1.57;100.00
70971;BME280;58632;51.718;19.446;2023-11-22T09:17:14;100718.30;;;-1.56;100.00
70971;BME280;58632;51.718;19.446;2023-11-22T09:19:39;100724.13;;;-1.53;100.00
70971;BME280;58632;51.718;19.446;2023-11-22T09:22:05;100719.18;;;-1.53;100.00
70971;BME280;58632;51.718;19.446;2023-11-22T09:24:34;100715.51;;;-1.54;100.00
70971;BME280;58632;51.718;19.446;2023-11-22T09:27:02;100715.95;;;-1.53;100.00
70971;BME280;58632;51.718;19.446;2023-11-22T09:29:31;100712.65;;;-1.54;100.00
70971;BME280;58632;51.718;19.446;2023-11-22T09:31:56;100702.60;;;-1.52;100.00
70971;BME280;58632;51.718;19.446;2023-11-22T09:34:22;100691.01;;;-1.49;100.00
70971;BME280;58632;51.718;19.446;2023-11-22T09:36:47;100685.77;;;-1.42;100.00
70971;BME280;58632;51.718;19.446;2023-11-22T09:39:13;100689.83;;;-1.38;100.00
70971;BME280;58632;51.718;19.446;2023-11-22T09:41:38;100684.91;;;-1.39;100.00
70971;BME280;58632;51.718;19.446;2023-11-22T09:44:04;100677.13;;;-1.40;99.91
70971;BME280;58632;51.718;19.446;2023-11-22T09:46:30;100670.82;;;-1.43;100.00
70971;BME280;58632;51.718;19.446;2023-11-22T09:48:59;100658.59;;;-1.40;100.00
70971;BME280;58632;51.718;19.446;2023-11-22T09:51:28;100644.91;;;-1.40;99.14
70971;BME280;58632;51.718;19.446;2023-11-22T09:53:58;100642.70;;;-1.34;100.00
70971;BME280;58632;51.718;19.446;2023-11-22T09:56:29;100641.36;;;-1.27;100.00
70971;BME280;58632;51.718;19.446;2023-11-22T09:58:57;100642.45;;;-1.21;100.00
70971;BME280;58632;51.718;19.446;2023-11-22T10:01:25;100643.05;;;-1.15;100.00
70971;BME280;58632;51.718;19.446;2023-11-22T10:03:54;100646.19;;;-1.18;98.62
70971;BME280;58632;51.718;19.446;2023-11-22T10:06:20;100653.25;;;-1.18;99.34
70971;BME280;58632;51.718;19.446;2023-11-22T10:08:45;100652.52;;;-1.19;99.61
70971;BME280;58632;51.718;19.446;2023-11-22T10:11:17;100661.17;;;-1.17;98.88
70971;BME280;58632;51.718;19.446;2023-11-22T10:13:43;100659.30;;;-1.16;99.04
70971;BME280;58632;51.718;19.446;2023-11-22T10:16:11;100656.17;;;-1.13;99.95
70971;BME280;58632;51.718;19.446;2023-11-22T10:18:44;100653.09;;;-1.11;99.27
70971;BME280;58632;51.718;19.446;2023-11-22T10:21:22;100654.75;;;-1.09;100.00
70971;BME280;58632;51.718;19.446;2023-11-22T10:23:49;100661.45;;;-1.04;100.00
70971;BME280;58632;51.718;19.446;2023-11-22T10:26:17;100671.86;;;-1.01;100.00
70971;BME280;58632;51.718;19.446;2023-11-22T10:28:42;100683.54;;;-1.01;100.00
70971;BME280;58632;51.718;19.446;2023-11-22T10:31:11;100681.29;;;-1.01;100.00
70971;BME280;58632;51.718;19.446;2023-11-22T10:33:40;100689.41;;;-0.99;99.94
70971;BME280;58632;51.718;19.446;2023-11-22T10:36:09;100695.56;;;-0.96;100.00
70971;BME280;58632;51.718;19.446;2023-11-22T10:38:35;100694.23;;;-0.94;99.82
70971;BME280;58632;51.718;19.446;2023-11-22T10:41:04;100692.16;;;-0.91;100.00
70971;BME280;58632;51.718;19.446;2023-11-22T10:43:30;100698.54;;;-0.87;99.32
70971;BME280;58632;51.718;19.446;2023-11-22T10:45:57;100696.39;;;-0.88;96.63
70971;BME280;58632;51.718;19.446;2023-11-22T10:48:25;100692.59;;;-0.85;96.50
70971;BME280;58632;51.718;19.446;2023-11-22T10:50:52;100681.42;;;-0.81;98.64
70971;BME280;58632;51.718;19.446;2023-11-22T10:53:20;100680.96;;;-0.77;99.95
70971;BME280;58632;51.718;19.446;2023-11-22T10:55:49;100687.67;;;-0.71;99.08
70971;BME280;58632;51.718;19.446;2023-11-22T10:58:18;100684.70;;;-0.71;94.45
70971;BME280;58632;51.718;19.446;2023-11-22T11:00:45;100674.83;;;-0.73;94.31
70971;BME280;58632;51.718;19.446;2023-11-22T11:03:13;100676.42;;;-0.70;97.08
70971;BME280;58632;51.718;19.446;2023-11-22T11:05:41;100684.37;;;-0.68;92.08
70971;BME280;58632;51.718;19.446;2023-11-22T11:08:08;100687.65;;;-0.69;92.48
70971;BME280;58632;51.718;19.446;2023-11-22T11:10:43;100683.83;;;-0.71;92.55
70971;BME280;58632;51.718;19.446;2023-11-22T11:13:09;100682.61;;;-0.70;93.67
70971;BME280;58632;51.718;19.446;2023-11-22T11:15:36;100688.85;;;-0.70;93.34
70971;BME280;58632;51.718;19.446;2023-11-22T11:18:02;100690.31;;;-0.73;91.25
70971;BME280;58632;51.718;19.446;2023-11-22T11:20:32;100693.94;;;-0.72;93.30
70971;BME280;58632;51.718;19.446;2023-11-22T11:22:57;100705.39;;;-0.64;95.53
70971;BME280;58632;51.718;19.446;2023-11-22T11:25:23;100714.06;;;-0.59;92.95
70971;BME280;58632;51.718;19.446;2023-11-22T11:27:56;100708.44;;;-0.56;92.33
70971;BME280;58632;51.718;19.446;2023-11-22T11:33:11;100707.70;;;-0.50;95.18
70971;BME280;58632;51.718;19.446;2023-11-22T11:35:47;100715.20;;;-0.44;94.03
70971;BME280;58632;51.718;19.446;2023-11-22T11:38:16;100706.65;;;-0.39;93.24
70971;BME280;58632;51.718;19.446;2023-11-22T11:40:47;100698.10;;;-0.37;91.14
70971;BME280;58632;51.718;19.446;2023-11-22T11:43:13;100695.79;;;-0.37;90.90
70971;BME280;58632;51.718;19.446;2023-11-22T11:45:40;100698.89;;;-0.38;89.97
70971;BME280;58632;51.718;19.446;2023-11-22T11:48:11;100710.14;;;-0.39;89.21
70971;BME280;58632;51.718;19.446;2023-11-22T11:50:39;100706.91;;;-0.40;90.67
70971;BME280;58632;51.718;19.446;2023-11-22T11:53:04;100711.98;;;-0.37;92.04
70971;BME280;58632;51.718;19.446;2023-11-22T11:55:30;100723.05;;;-0.35;91.02
70971;BME280;58632;51.718;19.446;2023-11-22T11:57:55;100736.67;;;-0.32;91.23
70971;BME280;58632;51.718;19.446;2023-11-22T12:00:22;100738.27;;;-0.29;90.03
70971;BME280;58632;51.718;19.446;2023-11-22T12:02:50;100728.21;;;-0.28;90.66
70971;BME280;58632;51.718;19.446;2023-11-22T12:05:15;100720.46;;;-0.28;88.59
70971;BME280;58632;51.718;19.446;2023-11-22T12:07:41;100721.35;;;-0.29;88.67
70971;BME280;58632;51.718;19.446;2023-11-22T12:10:06;100713.21;;;-0.28;90.24
70971;BME280;58632;51.718;19.446;2023-11-22T12:12:34;100712.92;;;-0.25;91.65
70971;BME280;58632;51.718;19.446;2023-11-22T12:15:00;100702.13;;;-0.22;92.15
70971;BME280;58632;51.718;19.446;2023-11-22T12:17:26;100699.67;;;-0.19;92.61
70971;BME280;58632;51.718;19.446;2023-11-22T12:20:08;100700.73;;;-0.20;89.19
70971;BME280;58632;51.718;19.446;2023-11-22T12:22:33;100703.17;;;-0.23;85.72
70971;BME280;58632;51.718;19.446;2023-11-22T12:24:59;100696.91;;;-0.29;83.13
70971;BME280;58632;51.718;19.446;2023-11-22T12:27:25;100701.75;;;-0.37;84.35
70971;BME280;58632;51.718;19.446;2023-11-22T12:29:50;100705.39;;;-0.38;85.84
70971;BME280;58632;51.718;19.446;2023-11-22T12:32:16;100697.89;;;-0.37;86.98